sensor_id;sensor_type;location;lat;lon;timestamp;pressure;altitude;pressure_sealevel;temperature;humidity
51617;BME280;37697;52.588;13.394;2022-12-20T00:00:19;101297.48;;;3.10;94.28
51617;BME280;37697;52.588;13.394;2022-12-20T00:05:22;101308.91;;;3.09;94.20
51617;BME280;37697;52.588;13.394;2022-12-20T00:10:23;101307.78;;;3.08;94.15
51617;BME280;37697;52.588;13.394;2022-12-20T00:15:24;101315.95;;;3.08;94.08
51617;BME280;37697;52.588;13.394;2022-12-20T00:20:25;101312.41;;;3.07;94.04
51617;BME280;37697;52.588;13.394;2022-12-20T00:25:27;101302.92;;;3.10;93.81
51617;BME280;37697;52.588;13.394;2022-12-20T00:30:28;101302.69;;;3.11;93.75
51617;BME280;37697;52.588;13.394;2022-12-20T00:35:29;101299.14;;;3.11;93.68
51617;BME280;37697;52.588;13.394;2022-12-20T00:40:29;101283.09;;;3.12;93.54
51617;BME280;37697;52.588;13.394;2022-12-20T00:45:30;101276.52;;;3.10;93.37
51617;BME280;37697;52.588;13.394;2022-12-20T00:50:31;101280.09;;;3.11;93.30
51617;BME280;37697;52.588;13.394;2022-12-20T00:55:31;101284.21;;;3.13;93.18
51617;BME280;37697;52.588;13.394;2022-12-20T01:00:32;101292.41;;;3.16;93.21
51617;BME280;37697;52.588;13.394;2022-12-20T01:05:33;101286.46;;;3.16;92.99
51617;BME280;37697;52.588;13.394;2022-12-20T01:10:34;101283.78;;;3.19;92.99
51617;BME280;37697;52.588;13.394;2022-12-20T01:15:34;101290.93;;;3.22;92.91
51617;BME280;37697;52.588;13.394;2022-12-20T01:20:35;101285.25;;;3.24;92.88
51617;BME280;37697;52.588;13.394;2022-12-20T01:25:36;101283.17;;;3.29;92.74
51617;BME280;37697;52.588;13.394;2022-12-20T01:30:39;101271.44;;;3.28;92.63
51617;BME280;37697;52.588;13.394;2022-12-20T01:35:40;101279.20;;;3.34;92.57
51617;BME280;37697;52.588;13.394;2022-12-20T01:40:41;101274.61;;;3.37;92.50
51617;BME280;37697;52.588;13.394;2022-12-20T01:45:42;101265.72;;;3.41;92.42
51617;BME280;37697;52.588;13.394;2022-12-20T01:50:42;101257.31;;;3.43;92.21
51617;BME280;37697;52.588;13.394;2022-12-20T01:55:45;101254.35;;;3.45;91.99
51617;BME280;37697;52.588;13.394;2022-12-20T02:00:47;101254.93;;;3.47;91.94
51617;BME280;37697;52.588;13.394;2022-12-20T02:05:48;101259.59;;;3.49;91.54
51617;BME280;37697;52.588;13.394;2022-12-20T02:16:21;101255.71;;;3.45;91.43
51617;BME280;37697;52.588;13.394;2022-12-20T02:21:31;101264.40;;;3.44;91.46
51617;BME280;37697;52.588;13.394;2022-12-20T02:32:24;101254.73;;;3.51;91.25
51617;BME280;37697;52.588;13.394;2022-12-20T02:37:21;101264.08;;;3.55;91.08
51617;BME280;37697;52.588;13.394;2022-12-20T02:42:24;101250.73;;;3.56;90.94
51617;BME280;37697;52.588;13.394;2022-12-20T02:52:52;101246.72;;;3.58;90.81
51617;BME280;37697;52.588;13.394;2022-12-20T02:57:58;101221.11;;;3.59;90.71
51617;BME280;37697;52.588;13.394;2022-12-20T03:03:00;101209.50;;;3.64;90.29
51617;BME280;37697;52.588;13.394;2022-12-20T03:08:21;101213.37;;;3.68;90.51
51617;BME280;37697;52.588;13.394;2022-12-20T03:13:23;101200.63;;;3.71;90.38
51617;BME280;37697;52.588;13.394;2022-12-20T03:18:24;101195.76;;;3.73;90.40
51617;BME280;37697;52.588;13.394;2022-12-20T03:23:25;101196.57;;;3.74;90.04
51617;BME280;37697;52.588;13.394;2022-12-20T03:28:26;101196.09;;;3.77;90.11
51617;BME280;37697;52.588;13.394;2022-12-20T03:33:26;101204.32;;;3.79;90.01
51617;BME280;37697;52.588;13.394;2022-12-20T03:38:27;101215.01;;;3.84;90.14
51617;BME280;37697;52.588;13.394;2022-12-20T03:43:28;101223.75;;;3.86;90.09
51617;BME280;37697;52.588;13.394;2022-12-20T03:48:28;101201.80;;;3.92;90.01
51617;BME280;37697;52.588;13.394;2022-12-20T03:53:29;101212.45;;;3.94;89.90
51617;BME280;37697;52.588;13.394;2022-12-20T03:58:30;101205.73;;;3.99;89.65
51617;BME280;37697;52.588;13.394;2022-12-20T04:03:30;101194.22;;;3.97;89.52
51617;BME280;37697;52.588;13.394;2022-12-20T04:08:31;101191.77;;;3.95;89.05
51617;BME280;37697;52.588;13.394;2022-12-20T04:13:32;101209.98;;;3.92;89.04
51617;BME280;37697;52.588;13.394;2022-12-20T04:18:33;101223.52;;;3.87;89.08
51617;BME280;37697;52.588;13.394;2022-12-20T04:23:34;101205.23;;;3.85;89.15
51617;BME280;37697;52.588;13.394;2022-12-20T04:28:36;101207.41;;;3.86;89.07
51617;BME280;37697;52.588;13.394;2022-12-20T04:33:37;101196.75;;;3.84;89.06
51617;BME280;37697;52.588;13.394;2022-12-20T04:38:38;101191.03;;;3.83;89.02
51617;BME280;37697;52.588;13.394;2022-12-20T04:43:39;101193.42;;;3.79;88.85
51617;BME280;37697;52.588;13.394;2022-12-20T04:48:39;101199.36;;;3.76;88.82
51617;BME280;37697;52.588;13.394;2022-12-20T04:53:40;101191.12;;;3.74;88.84
51617;BME280;37697;52.588;13.394;2022-12-20T04:58:49;101185.10;;;3.72;88.92
51617;BME280;37697;52.588;13.394;2022-12-20T05:03:51;101185.34;;;3.70;88.86
51617;BME280;37697;52.588;13.394;2022-12-20T05:08:52;101177.95;;;3.68;88.74
51617;BME280;37697;52.588;13.394;2022-12-20T05:13:54;101177.69;;;3.67;88.82
51617;BME280;37697;52.588;13.394;2022-12-20T05:18:55;101185.22;;;3.63;88.72
51617;BME280;37697;52.588;13.394;2022-12-20T05:23:55;101194.21;;;3.63;88.95
51617;BME280;37697;52.588;13.394;2022-12-20T05:29:15;101185.25;;;3.65;88.95
51617;BME280;37697;52.588;13.394;2022-12-20T05:34:16;101159.77;;;3.71;89.15
51617;BME280;37697;52.588;13.394;2022-12-20T05:39:17;101161.45;;;3.75;89.04
51617;BME280;37697;52.588;13.394;2022-12-20T05:44:18;101174.05;;;3.78;88.99
51617;BME280;37697;52.588;13.394;2022-12-20T05:49:19;101158.00;;;3.79;88.92
51617;BME280;37697;52.588;13.394;2022-12-20T05:54:20;101149.04;;;3.82;88.83
51617;BME280;37697;52.588;13.394;2022-12-20T05:59:21;101163.23;;;3.84;88.86
51617;BME280;37697;52.588;13.394;2022-12-20T06:04:21;101165.98;;;3.86;88.89
51617;BME280;37697;52.588;13.394;2022-12-20T06:09:22;101149.70;;;3.89;88.78
51617;BME280;37697;52.588;13.394;2022-12-20T06:14:23;101148.11;;;3.93;88.91
51617;BME280;37697;52.588;13.394;2022-12-20T06:19:24;101168.64;;;3.98;88.94
51617;BME280;37697;52.588;13.394;2022-12-20T06:24:25;101173.03;;;3.99;89.03
51617;BME280;37697;52.588;13.394;2022-12-20T06:29:26;101185.38;;;4.04;89.08
51617;BME280;37697;52.588;13.394;2022-12-20T06:34:27;101183.22;;;4.06;89.05
51617;BME280;37697;52.588;13.394;2022-12-20T06:39:27;101194.39;;;4.07;89.20
51617;BME280;37697;52.588;13.394;2022-12-20T06:44:28;101181.09;;;4.11;89.29
51617;BME280;37697;52.588;13.394;2022-12-20T06:49:29;101181.39;;;4.12;89.40
51617;BME280;37697;52.588;13.394;2022-12-20T06:54:30;101181.14;;;4.13;89.65
51617;BME280;37697;52.588;13.394;2022-12-20T06:59:30;101174.84;;;4.13;89.70
51617;BME280;37697;52.588;13.394;2022-12-20T07:04:31;101184.69;;;4.14;90.02
51617;BME280;37697;52.588;13.394;2022-12-20T07:09:32;101188.78;;;4.14;90.17
51617;BME280;37697;52.588;13.394;2022-12-20T07:14:33;101182.53;;;4.16;90.53
51617;BME280;37697;52.588;13.394;2022-12-20T07:19:34;101193.77;;;4.20;90.79
51617;BME280;37697;52.588;13.394;2022-12-20T07:24:35;101202.00;;;4.22;91.18
51617;BME280;37697;52.588;13.394;2022-12-20T07:29:36;101201.20;;;4.24;91.23
51617;BME280;37697;52.588;13.394;2022-12-20T07:34:39;101212.11;;;4.24;91.28
51617;BME280;37697;52.588;13.394;2022-12-20T07:39:40;101218.14;;;4.26;91.54
51617;BME280;37697;52.588;13.394;2022-12-20T07:44:42;101230.43;;;4.29;91.67
51617;BME280;37697;52.588;13.394;2022-12-20T07:49:42;101231.53;;;4.28;91.88
51617;BME280;37697;52.588;13.394;2022-12-20T07:54:46;101228.58;;;4.32;91.92
51617;BME280;37697;52.588;13.394;2022-12-20T07:59:52;101228.09;;;4.35;92.17
51617;BME280;37697;52.588;13.394;2022-12-20T08:04:55;101225.94;;;4.37;92.10
51617;BME280;37697;52.588;13.394;2022-12-20T08:09:56;101218.87;;;4.39;92.80
51617;BME280;37697;52.588;13.394;2022-12-20T08:14:57;101220.55;;;4.42;92.60
51617;BME280;37697;52.588;13.394;2022-12-20T08:19:58;101206.67;;;4.44;92.92
51617;BME280;37697;52.588;13.394;2022-12-20T08:25:00;101211.88;;;4.45;93.42
51617;BME280;37697;52.588;13.394;2022-12-20T08:30:00;101213.81;;;4.47;93.60
51617;BME280;37697;52.588;13.394;2022-12-20T08:35:01;101215.20;;;4.50;93.77
51617;BME280;37697;52.588;13.394;2022-12-20T08:40:03;101217.19;;;4.54;93.96
51617;BME280;37697;52.588;13.394;2022-12-20T08:45:05;101203.59;;;4.57;94.12
51617;BME280;37697;52.588;13.394;2022-12-20T08:50:07;101197.61;;;4.60;94.29
51617;BME280;37697;52.588;13.394;2022-12-20T08:55:08;101202.58;;;4.63;94.64
51617;BME280;37697;52.588;13.394;2022-12-20T09:00:10;101195.83;;;4.68;94.61
51617;BME280;37697;52.588;13.394;2022-12-20T09:05:12;101191.80;;;4.73;94.87
51617;BME280;37697;52.588;13.394;2022-12-20T09:10:12;101199.19;;;4.75;94.91
51617;BME280;37697;52.588;13.394;2022-12-20T09:15:14;101197.34;;;4.81;95.25
51617;BME280;37697;52.588;13.394;2022-12-20T09:20:14;101197.97;;;4.86;95.17
51617;BME280;37697;52.588;13.394;2022-12-20T09:25:15;101200.21;;;4.91;95.27
51617;BME280;37697;52.588;13.394;2022-12-20T09:30:16;101184.78;;;5.02;95.45
51617;BME280;37697;52.588;13.394;2022-12-20T09:35:17;101168.02;;;5.16;95.89
51617;BME280;37697;52.588;13.394;2022-12-20T09:40:20;101180.98;;;5.28;95.40
51617;BME280;37697;52.588;13.394;2022-12-20T09:45:28;101175.58;;;5.36;95.44
51617;BME280;37697;52.588;13.394;2022-12-20T09:50:44;101172.16;;;5.48;95.46
51617;BME280;37697;52.588;13.394;2022-12-20T09:56:11;101173.33;;;5.57;95.46
51617;BME280;37697;52.588;13.394;2022-12-20T10:01:21;101172.30;;;5.63;95.49
51617;BME280;37697;52.588;13.394;2022-12-20T10:06:38;101178.63;;;5.69;95.42
51617;BME280;37697;52.588;13.394;2022-12-20T10:17:14;101168.36;;;5.81;95.40
51617;BME280;37697;52.588;13.394;2022-12-20T10:22:27;101173.06;;;5.91;95.31
51617;BME280;37697;52.588;13.394;2022-12-20T10:27:32;101172.63;;;5.99;95.35
51617;BME280;37697;52.588;13.394;2022-12-20T10:32:35;101149.16;;;6.06;95.27
51617;BME280;37697;52.588;13.394;2022-12-20T10:37:36;101140.18;;;6.13;95.21
51617;BME280;37697;52.588;13.394;2022-12-20T10:42:38;101128.46;;;6.20;95.06
51617;BME280;37697;52.588;13.394;2022-12-20T10:47:42;101105.25;;;6.25;95.04
51617;BME280;37697;52.588;13.394;2022-12-20T10:58:32;101106.41;;;6.40;94.96
51617;BME280;37697;52.588;13.394;2022-12-20T11:03:48;101097.70;;;6.48;94.84
51617;BME280;37697;52.588;13.394;2022-12-20T11:08:50;101086.22;;;6.54;94.32
51617;BME280;37697;52.588;13.394;2022-12-20T11:13:51;101056.69;;;6.61;94.49
51617;BME280;37697;52.588;13.394;2022-12-20T11:30:14;101035.11;;;6.67;93.92
51617;BME280;37697;52.588;13.394;2022-12-20T11:46:33;101034.86;;;6.81;93.65
51617;BME280;37697;52.588;13.394;2022-12-20T11:51:45;101026.38;;;6.93;93.66
51617;BME280;37697;52.588;13.394;2022-12-20T11:56:50;101017.08;;;7.07;93.28
51617;BME280;37697;52.588;13.394;2022-12-20T12:02:10;101009.42;;;7.12;92.38
51617;BME280;37697;52.588;13.394;2022-12-20T12:07:28;101005.59;;;7.10;91.91
51617;BME280;37697;52.588;13.394;2022-12-20T12:12:37;101011.05;;;7.13;91.80
51617;BME280;37697;52.588;13.394;2022-12-20T12:18:04;101017.63;;;7.14;91.62
51617;BME280;37697;52.588;13.394;2022-12-20T12:23:15;101006.13;;;7.17;91.41
51617;BME280;37697;52.588;13.394;2022-12-20T12:28:18;101002.01;;;7.30;91.17
51617;BME280;37697;52.588;13.394;2022-12-20T12:33:24;100983.66;;;7.33;91.25
51617;BME280;37697;52.588;13.394;2022-12-20T12:44:37;100976.25;;;7.39;90.87
51617;BME280;37697;52.588;13.394;2022-12-20T12:49:53;100975.70;;;7.42;90.44
51617;BME280;37697;52.588;13.394;2022-12-20T12:54:55;100959.28;;;7.39;90.37
51617;BME280;37697;52.588;13.394;2022-12-20T12:59:56;100945.86;;;7.38;90.20
51617;BME280;37697;52.588;13.394;2022-12-20T13:20:34;100937.09;;;7.36;89.71
51617;BME280;37697;52.588;13.394;2022-12-20T13:25:36;100936.55;;;7.31;89.18
51617;BME280;37697;52.588;13.394;2022-12-20T13:30:40;100925.30;;;7.25;89.29
51617;BME280;37697;52.588;13.394;2022-12-20T13:35:54;100939.02;;;7.23;89.24
51617;BME280;37697;52.588;13.394;2022-12-20T13:47:01;100940.39;;;7.12;88.49
51617;BME280;37697;52.588;13.394;2022-12-20T13:52:22;100935.19;;;7.06;88.21
51617;BME280;37697;52.588;13.394;2022-12-20T13:57:41;100917.39;;;7.00;87.66
51617;BME280;37697;52.588;13.394;2022-12-20T14:02:44;100924.27;;;6.95;87.82
51617;BME280;37697;52.588;13.394;2022-12-20T14:07:47;100943.69;;;6.91;86.82
51617;BME280;37697;52.588;13.394;2022-12-20T14:13:23;100930.55;;;6.86;87.21
51617;BME280;37697;52.588;13.394;2022-12-20T14:18:26;100929.73;;;6.80;86.80
51617;BME280;37697;52.588;13.394;2022-12-20T14:23:35;100926.44;;;6.75;86.83
51617;BME280;37697;52.588;13.394;2022-12-20T14:28:41;100913.84;;;6.72;86.58
51617;BME280;37697;52.588;13.394;2022-12-20T14:33:43;100908.91;;;6.69;86.23
51617;BME280;37697;52.588;13.394;2022-12-20T14:38:49;100919.87;;;6.66;86.51
51617;BME280;37697;52.588;13.394;2022-12-20T14:43:55;100905.91;;;6.62;86.23
51617;BME280;37697;52.588;13.394;2022-12-20T14:49:16;100893.58;;;6.60;85.92
51617;BME280;37697;52.588;13.394;2022-12-20T14:54:34;100889.77;;;6.58;85.75
51617;BME280;37697;52.588;13.394;2022-12-20T15:10:57;100891.13;;;6.48;85.11
51617;BME280;37697;52.588;13.394;2022-12-20T15:16:23;100890.84;;;6.44;85.36
51617;BME280;37697;52.588;13.394;2022-12-20T15:21:31;100883.17;;;6.41;84.58
51617;BME280;37697;52.588;13.394;2022-12-20T15:26:42;100875.77;;;6.37;84.51
51617;BME280;37697;52.588;13.394;2022-12-20T15:31:43;100871.66;;;6.32;84.53
51617;BME280;37697;52.588;13.394;2022-12-20T15:36:45;100874.13;;;6.31;84.44
51617;BME280;37697;52.588;13.394;2022-12-20T15:41:48;100862.36;;;6.28;84.26
51617;BME280;37697;52.588;13.394;2022-12-20T15:46:50;100869.73;;;6.24;84.19
51617;BME280;37697;52.588;13.394;2022-12-20T15:51:52;100859.62;;;6.22;83.77
51617;BME280;37697;52.588;13.394;2022-12-20T15:56:58;100851.95;;;6.19;83.61
51617;BME280;37697;52.588;13.394;2022-12-20T16:02:02;100857.72;;;6.18;83.64
51617;BME280;37697;52.588;13.394;2022-12-20T16:07:04;100858.25;;;6.15;83.73
51617;BME280;37697;52.588;13.394;2022-12-20T16:12:12;100836.35;;;6.12;83.62
51617;BME280;37697;52.588;13.394;2022-12-20T16:17:17;100830.60;;;6.08;83.58
51617;BME280;37697;52.588;13.394;2022-12-20T16:22:20;100838.00;;;6.05;83.80
51617;BME280;37697;52.588;13.394;2022-12-20T16:27:22;100834.44;;;6.02;83.62
51617;BME280;37697;52.588;13.394;2022-12-20T16:32:23;100824.84;;;6.00;83.43
51617;BME280;37697;52.588;13.394;2022-12-20T16:37:24;100833.89;;;6.00;83.69
51617;BME280;37697;52.588;13.394;2022-12-20T16:42:24;100826.21;;;6.00;83.55
51617;BME280;37697;52.588;13.394;2022-12-20T16:47:25;100820.75;;;5.97;83.46
51617;BME280;37697;52.588;13.394;2022-12-20T16:52:26;100822.06;;;5.95;82.80
51617;BME280;37697;52.588;13.394;2022-12-20T16:57:27;100814.42;;;5.94;83.25
51617;BME280;37697;52.588;13.394;2022-12-20T17:02:31;100810.88;;;5.94;82.45
51617;BME280;37697;52.588;13.394;2022-12-20T17:07:33;100810.59;;;5.93;83.04
51617;BME280;37697;52.588;13.394;2022-12-20T17:12:33;100816.89;;;5.93;82.80
51617;BME280;37697;52.588;13.394;2022-12-20T17:17:34;100807.03;;;5.92;82.73
51617;BME280;37697;52.588;13.394;2022-12-20T17:22:35;100807.33;;;5.93;82.35
51617;BME280;37697;52.588;13.394;2022-12-20T17:27:35;100803.23;;;5.93;82.48
51617;BME280;37697;52.588;13.394;2022-12-20T17:32:36;100787.91;;;5.92;82.24
51617;BME280;37697;52.588;13.394;2022-12-20T17:37:38;100813.06;;;5.92;82.29
51617;BME280;37697;52.588;13.394;2022-12-20T17:42:40;100816.31;;;5.91;82.27
51617;BME280;37697;52.588;13.394;2022-12-20T17:47:41;100831.09;;;5.90;82.06
51617;BME280;37697;52.588;13.394;2022-12-20T17:52:42;100830.54;;;5.91;81.93
51617;BME280;37697;52.588;13.394;2022-12-20T17:57:43;100830.54;;;5.91;82.14
51617;BME280;37697;52.588;13.394;2022-12-20T18:02:44;100807.05;;;5.89;82.08
51617;BME280;37697;52.588;13.394;2022-12-20T18:07:55;100796.92;;;5.93;81.55
51617;BME280;37697;52.588;13.394;2022-12-20T18:12:54;100812.27;;;5.96;81.54
51617;BME280;37697;52.588;13.394;2022-12-20T18:17:55;100814.73;;;5.98;81.39
51617;BME280;37697;52.588;13.394;2022-12-20T18:22:55;100817.75;;;5.99;81.38
51617;BME280;37697;52.588;13.394;2022-12-20T18:27:56;100809.23;;;5.95;81.14
51617;BME280;37697;52.588;13.394;2022-12-20T18:32:57;100812.27;;;5.96;81.67
51617;BME280;37697;52.588;13.394;2022-12-20T18:37:58;100797.77;;;5.93;81.87
51617;BME280;37697;52.588;13.394;2022-12-20T18:42:58;100811.96;;;5.90;82.02
51617;BME280;37697;52.588;13.394;2022-12-20T18:47:59;100808.13;;;5.86;82.06
51617;BME280;37697;52.588;13.394;2022-12-20T18:53:00;100804.30;;;5.84;82.33
51617;BME280;37697;52.588;13.394;2022-12-20T18:58:01;100794.19;;;5.82;82.43
51617;BME280;37697;52.588;13.394;2022-12-20T19:03:02;100790.34;;;5.83;82.52
51617;BME280;37697;52.588;13.394;2022-12-20T19:08:03;100791.72;;;5.83;82.46
51617;BME280;37697;52.588;13.394;2022-12-20T19:13:04;100787.34;;;5.85;82.33
51617;BME280;37697;52.588;13.394;2022-12-20T19:18:04;100797.45;;;5.87;82.54
51617;BME280;37697;52.588;13.394;2022-12-20T19:23:06;100801.03;;;5.90;82.58
51617;BME280;37697;52.588;13.394;2022-12-20T19:28:07;100795.56;;;5.90;82.64
51617;BME280;37697;52.588;13.394;2022-12-20T19:33:08;100799.66;;;5.90;82.66
51617;BME280;37697;52.588;13.394;2022-12-20T19:38:08;100808.67;;;5.91;82.69
51617;BME280;37697;52.588;13.394;2022-12-20T19:43:09;100793.10;;;5.86;83.07
51617;BME280;37697;52.588;13.394;2022-12-20T19:48:10;100785.41;;;5.80;83.61
51617;BME280;37697;52.588;13.394;2022-12-20T19:53:11;100800.72;;;5.74;84.09
51617;BME280;37697;52.588;13.394;2022-12-20T19:58:12;100794.14;;;5.67;84.39
51617;BME280;37697;52.588;13.394;2022-12-20T20:03:13;100795.22;;;5.63;84.95
51617;BME280;37697;52.588;13.394;2022-12-20T20:08:14;100791.95;;;5.61;84.95
51617;BME280;37697;52.588;13.394;2022-12-20T20:13:15;100772.24;;;5.59;85.05
51617;BME280;37697;52.588;13.394;2022-12-20T20:18:16;100773.34;;;5.58;85.18
51617;BME280;37697;52.588;13.394;2022-12-20T20:23:17;100770.07;;;5.56;85.13
51617;BME280;37697;52.588;13.394;2022-12-20T20:28:19;100769.78;;;5.55;85.10
51617;BME280;37697;52.588;13.394;2022-12-20T20:33:20;100767.05;;;5.55;85.03
51617;BME280;37697;52.588;13.394;2022-12-20T20:38:21;100764.88;;;5.55;84.92
51617;BME280;37697;52.588;13.394;2022-12-20T20:43:23;100772.78;;;5.51;84.85
51617;BME280;37697;52.588;13.394;2022-12-20T20:48:24;100784.23;;;5.50;84.72
51617;BME280;37697;52.588;13.394;2022-12-20T20:53:25;100779.87;;;5.49;84.64
51617;BME280;37697;52.588;13.394;2022-12-20T20:58:26;100764.30;;;5.50;84.65
51617;BME280;37697;52.588;13.394;2022-12-20T21:03:28;100763.22;;;5.51;84.69
51617;BME280;37697;52.588;13.394;2022-12-20T21:08:29;100756.94;;;5.53;84.58
51617;BME280;37697;52.588;13.394;2022-12-20T21:13:30;100765.69;;;5.53;84.45
51617;BME280;37697;52.588;13.394;2022-12-20T21:18:31;100762.41;;;5.53;84.45
51617;BME280;37697;52.588;13.394;2022-12-20T21:23:32;100744.65;;;5.53;84.27
51617;BME280;37697;52.588;13.394;2022-12-20T21:28:32;100751.48;;;5.53;84.37
51617;BME280;37697;52.588;13.394;2022-12-20T21:33:33;100758.05;;;5.55;84.27
51617;BME280;37697;52.588;13.394;2022-12-20T21:38:34;100756.41;;;5.56;84.35
51617;BME280;37697;52.588;13.394;2022-12-20T21:43:35;100755.04;;;5.59;84.17
51617;BME280;37697;52.588;13.394;2022-12-20T21:48:39;100740.30;;;5.60;84.04
51617;BME280;37697;52.588;13.394;2022-12-20T21:53:50;100744.92;;;5.59;84.00
51617;BME280;37697;52.588;13.394;2022-12-20T21:58:53;100741.64;;;5.57;83.90
51617;BME280;37697;52.588;13.394;2022-12-20T22:03:59;100737.81;;;5.56;83.90
51617;BME280;37697;52.588;13.394;2022-12-20T22:08:59;100730.17;;;5.53;83.85
51617;BME280;37697;52.588;13.394;2022-12-20T22:14:01;100733.44;;;5.52;84.00
51617;BME280;37697;52.588;13.394;2022-12-20T22:19:02;100736.16;;;5.52;83.91
51617;BME280;37697;52.588;13.394;2022-12-20T22:24:03;100745.47;;;5.51;83.90
51617;BME280;37697;52.588;13.394;2022-12-20T22:29:05;100746.28;;;5.51;83.71
51617;BME280;37697;52.588;13.394;2022-12-20T22:34:06;100730.44;;;5.51;83.74
51617;BME280;37697;52.588;13.394;2022-12-20T22:39:08;100725.79;;;5.51;83.74
51617;BME280;37697;52.588;13.394;2022-12-20T22:44:08;100718.70;;;5.53;83.83
51617;BME280;37697;52.588;13.394;2022-12-20T22:49:15;100711.32;;;5.51;83.71
51617;BME280;37697;52.588;13.394;2022-12-20T22:54:17;100711.86;;;5.45;83.80
51617;BME280;37697;52.588;13.394;2022-12-20T22:59:17;100711.86;;;5.45;84.02
51617;BME280;37697;52.588;13.394;2022-12-20T23:04:18;100701.46;;;5.45;83.96
51617;BME280;37697;52.588;13.394;2022-12-20T23:09:19;100703.09;;;5.43;83.96
51617;BME280;37697;52.588;13.394;2022-12-20T23:14:21;100702.02;;;5.42;83.97
51617;BME280;37697;52.588;13.394;2022-12-20T23:19:40;100693.80;;;5.39;84.00
51617;BME280;37697;52.588;13.394;2022-12-20T23:25:00;100700.63;;;5.39;84.14
51617;BME280;37697;52.588;13.394;2022-12-20T23:30:02;100715.37;;;5.36;84.16
51617;BME280;37697;52.588;13.394;2022-12-20T23:35:05;100708.27;;;5.32;84.21
51617;BME280;37697;52.588;13.394;2022-12-20T23:40:07;100712.36;;;5.29;84.37
51617;BME280;37697;52.588;13.394;2022-12-20T23:45:09;100714.25;;;5.29;84.50
51617;BME280;37697;52.588;13.394;2022-12-20T23:50:10;100703.60;;;5.25;84.87
51617;BME280;37697;52.588;13.394;2022-12-20T23:55:11;100694.03;;;5.17;85.15
